Time;durP1;ratioP1;P1;durP2;ratioP2;P2;SDS_P1;SDS_P2;PMS_P1;PMS_P2;Temp;Humidity;BMP_temperature;BMP_pressure;BME280_temperature;BME280_humidity;BME280_pressure;Samples;Min_cycle;Max_cycle;Signal;HPM_P1;HPM_P2
2023/04/24 00:01:15;;;;;;;0.20;0.20;;;11.80;99.90;;;;;;6185595;23;20027;-82
2023/04/24 00:03:41;;;;;;;0.15;0.15;;;11.80;99.90;;;;;;6185767;23;20016;-82
2023/04/24 00:06:16;;;;;;;0.20;0.20;;;11.80;99.90;;;;;;6180073;23;20099;-82
2023/04/24 00:09:33;;;;;;;0.20;0.20;;;11.80;99.90;;;;;;6182175;23;20017;-82
2023/04/24 00:12:04;;;;;;;0.10;0.10;;;11.30;99.90;;;;;;6211006;23;20083;-82
2023/04/24 00:14:32;;;;;;;0.20;0.20;;;12.30;99.90;;;;;;6133463;23;20765;-82
2023/04/24 00:17:20;;;;;;;0.20;0.20;;;11.80;99.90;;;;;;6225151;23;20005;-83
2023/04/24 00:20:06;;;;;;;0.20;0.20;;;11.70;99.90;;;;;;6213995;23;20013;-81
2023/04/24 00:22:35;;;;;;;0.10;0.10;;;11.70;99.90;;;;;;6186385;23;20038;-82
2023/04/24 00:25:01;;;;;;;0.10;0.10;;;11.60;99.90;;;;;;6186060;23;20669;-83
2023/04/24 00:27:34;;;;;;;0.10;0.10;;;11.70;99.90;;;;;;6211411;23;20019;-81
2023/04/24 00:30:18;;;;;;;0.20;0.20;;;11.70;99.90;;;;;;6184462;23;20009;-82
2023/04/24 00:32:59;;;;;;;0.10;0.10;;;12.00;99.90;;;;;;6211999;23;20024;-82
2023/04/24 00:35:37;;;;;;;0.20;0.20;;;11.60;99.90;;;;;;6184686;23;20329;-83
2023/04/24 00:38:15;;;;;;;0.10;0.10;;;11.80;99.90;;;;;;6214148;23;20020;-83
2023/04/24 00:40:43;;;;;;;0.20;0.20;;;12.10;99.90;;;;;;6211548;23;20027;-84
2023/04/24 00:43:09;;;;;;;0.20;0.20;;;11.40;99.90;;;;;;6213077;23;20678;-83
2023/04/24 00:45:35;;;;;;;0.10;0.10;;;11.50;99.90;;;;;;6184320;23;20044;-84
2023/04/24 00:48:05;;;;;;;0.10;0.10;;;11.50;99.90;;;;;;6212760;23;20016;-84
2023/04/24 00:50:32;;;;;;;0.10;0.10;;;11.30;99.90;;;;;;6186853;23;20066;-83
2023/04/24 00:52:58;;;;;;;0.20;0.20;;;10.90;99.90;;;;;;6186941;23;20499;-83
2023/04/24 00:55:25;;;;;;;0.20;0.20;;;11.30;99.90;;;;;;6193233;23;20048;-84
2023/04/24 00:58:03;;;;;;;0.10;0.10;;;11.20;99.90;;;;;;6189250;23;20099;-83
2023/04/24 01:00:35;;;;;;;0.10;0.10;;;11.80;99.90;;;;;;6184899;23;20020;-84
2023/04/24 01:03:05;;;;;;;0.13;0.13;;;10.50;99.90;;;;;;6184730;23;20052;-85
2023/04/24 01:05:32;;;;;;;0.13;0.13;;;11.10;99.90;;;;;;6186605;23;20421;-85
2023/04/24 01:07:59;;;;;;;0.20;0.20;;;11.00;99.90;;;;;;6185931;23;20017;-85
2023/04/24 01:10:30;;;;;;;0.20;0.20;;;10.90;99.90;;;;;;6213410;23;20051;-85
2023/04/24 01:12:57;;;;;;;0.10;0.10;;;10.90;99.90;;;;;;6187253;23;20474;-87
2023/04/24 01:15:23;;;;;;;0.20;0.20;;;10.90;99.90;;;;;;6211418;23;20043;-87
2023/04/24 01:18:07;;;;;;;0.13;0.13;;;10.80;99.90;;;;;;6185616;23;20093;-85
2023/04/24 01:20:39;;;;;;;0.20;0.20;;;10.70;99.90;;;;;;6212463;23;20024;-86
2023/04/24 01:23:24;;;;;;;0.20;0.20;;;10.20;99.90;;;;;;6185809;23;20012;-86
2023/04/24 01:25:53;;;;;;;0.10;0.10;;;10.70;99.90;;;;;;6214276;23;20453;-85
2023/04/24 01:28:19;;;;;;;0.20;0.20;;;10.70;99.90;;;;;;6214637;23;20024;-86
2023/04/24 01:30:52;;;;;;;0.20;0.20;;;10.60;99.90;;;;;;6185349;23;20009;-84
2023/04/24 01:33:33;;;;;;;0.10;0.10;;;11.10;99.90;;;;;;6211909;22;20019;-84
2023/04/24 01:36:27;;;;;;;0.20;0.20;;;10.80;99.90;;;;;;6241800;23;20004;-85
2023/04/24 01:38:57;;;;;;;0.20;0.20;;;10.50;99.90;;;;;;6241470;23;20043;-85
2023/04/24 01:41:35;;;;;;;0.20;0.20;;;10.40;99.90;;;;;;6215709;23;20035;-85
2023/04/24 01:44:02;;;;;;;0.10;0.10;;;10.50;99.90;;;;;;6242920;23;20016;-85
2023/04/24 01:46:37;;;;;;;0.17;0.17;;;10.40;99.90;;;;;;6214936;22;20016;-85
2023/04/24 01:49:06;;;;;;;0.20;0.20;;;10.40;99.90;;;;;;6215805;23;20031;-85
2023/04/24 01:51:32;;;;;;;0.20;0.20;;;10.30;99.90;;;;;;6213548;23;20055;-85
2023/04/24 01:53:57;;;;;;;0.20;0.20;;;10.40;99.90;;;;;;6214269;23;20397;-85
2023/04/24 01:56:24;;;;;;;0.10;0.10;;;10.40;99.90;;;;;;6241988;23;20379;-85
2023/04/24 01:59:16;;;;;;;0.20;0.20;;;10.40;99.90;;;;;;6237430;23;20016;-84
2023/04/24 02:01:54;;;;;;;0.13;0.13;;;10.40;99.90;;;;;;6239547;23;20016;-84
2023/04/24 02:04:23;;;;;;;0.20;0.20;;;10.30;99.90;;;;;;6242135;23;20005;-83
2023/04/24 02:06:55;;;;;;;0.20;0.20;;;10.40;99.90;;;;;;6214281;23;20020;-84
2023/04/24 02:09:38;;;;;;;0.15;0.15;;;10.40;99.90;;;;;;6241657;23;20073;-84
2023/04/24 02:12:07;;;;;;;0.20;0.20;;;10.40;99.90;;;;;;6240586;23;20020;-85
2023/04/24 02:14:33;;;;;;;0.20;0.20;;;10.40;99.90;;;;;;6255445;23;20016;-84
2023/04/24 02:16:58;;;;;;;0.20;0.20;;;10.30;99.90;;;;;;6248862;23;20139;-83
2023/04/24 02:19:24;;;;;;;0.10;0.10;;;10.20;99.90;;;;;;6216166;23;20012;-84
2023/04/24 02:21:56;;;;;;;0.20;0.20;;;10.40;99.90;;;;;;6215902;23;20344;-83
2023/04/24 02:24:22;;;;;;;0.20;0.20;;;10.40;99.90;;;;;;6243205;23;20023;-83
2023/04/24 02:26:48;;;;;;;0.20;0.20;;;10.80;99.90;;;;;;6243555;23;20012;-85
2023/04/24 02:29:14;;;;;;;0.17;0.17;;;10.40;99.90;;;;;;6242387;23;20083;-85
2023/04/24 02:31:41;;;;;;;0.20;0.20;;;10.70;99.90;;;;;;6215828;22;20055;-82
2023/04/24 02:34:07;;;;;;;0.15;0.15;;;9.50;99.90;;;;;;6243626;23;20027;-82
2023/04/24 02:36:32;;;;;;;0.20;0.20;;;10.60;99.90;;;;;;6217034;23;20020;-84
2023/04/24 02:39:01;;;;;;;0.20;0.20;;;10.40;99.90;;;;;;6244731;23;20095;-82
2023/04/24 02:41:31;;;;;;;0.10;0.10;;;10.30;99.90;;;;;;6243215;23;20020;-83
2023/04/24 02:44:33;;;;;;;0.20;0.20;;;10.40;99.90;;;;;;6215525;23;20797;-82
2023/04/24 02:47:03;;;;;;;0.10;0.10;;;10.30;99.90;;;;;;6216701;23;20024;-83
2023/04/24 02:49:28;;;;;;;0.20;0.20;;;9.90;99.90;;;;;;6244992;23;20020;-85
2023/04/24 02:51:54;;;;;;;0.20;0.20;;;10.30;99.90;;;;;;6218926;23;20034;-83
2023/04/24 02:54:20;;;;;;;0.10;0.10;;;10.40;99.90;;;;;;6256566;23;20016;-82
2023/04/24 02:56:52;;;;;;;0.20;0.20;;;10.40;99.90;;;;;;6222039;23;20387;-82
2023/04/24 02:59:28;;;;;;;0.10;0.10;;;10.40;99.90;;;;;;6243846;23;20082;-82
2023/04/24 03:01:54;;;;;;;0.10;0.10;;;10.40;99.90;;;;;;6245300;23;20433;-82
2023/04/24 03:04:29;;;;;;;0.10;0.10;;;10.90;99.90;;;;;;6246546;23;20095;-82
2023/04/24 03:07:23;;;;;;;0.15;0.15;;;10.30;99.90;;;;;;6217328;23;20020;-81
2023/04/24 03:10:12;;;;;;;0.20;0.20;;;10.30;99.90;;;;;;6246459;23;20344;-81
2023/04/24 03:12:38;;;;;;;0.13;0.13;;;10.00;99.90;;;;;;6240900;23;20046;-85
2023/04/24 03:15:26;;;;;;;0.20;0.20;;;11.00;99.90;;;;;;6245386;23;20027;-81
2023/04/24 03:18:16;;;;;;;0.15;0.15;;;10.40;99.90;;;;;;6270371;23;20020;-82
2023/04/24 03:20:45;;;;;;;0.20;0.20;;;10.40;99.90;;;;;;6230843;23;20027;-82
2023/04/24 03:23:10;;;;;;;0.20;0.20;;;10.70;99.90;;;;;;6217376;23;20368;-82
2023/04/24 03:25:36;;;;;;;0.20;0.20;;;10.50;99.90;;;;;;6242277;23;20024;-82
2023/04/24 03:28:01;;;;;;;0.20;0.20;;;10.40;99.90;;;;;;6244053;23;20023;-83
2023/04/24 03:36:15;;;;;;;0.10;0.10;;;10.50;99.90;;;;;;6274339;22;20026;-81
2023/04/24 03:38:41;;;;;;;0.13;0.13;;;10.50;99.90;;;;;;6212166;23;20401;-82
2023/04/24 03:41:43;;;;;;;0.20;0.20;;;10.50;99.90;;;;;;6116264;23;20510;-81
2023/04/24 03:44:09;;;;;;;0.20;0.20;;;10.50;99.90;;;;;;6118430;23;20022;-83
2023/04/24 03:46:37;;;;;;;0.20;0.20;;;10.90;99.90;;;;;;6118608;23;20105;-82
2023/04/24 03:49:22;;;;;;;0.20;0.20;;;10.50;99.90;;;;;;6217854;22;20102;-82
2023/04/24 03:58:35;;;;;;;0.20;0.20;;;10.50;99.90;;;;;;6242253;22;20103;-82
2023/04/24 04:01:03;;;;;;;0.13;0.13;;;9.90;99.90;;;;;;6241034;23;20116;-83
2023/04/24 04:03:28;;;;;;;0.10;0.10;;;10.50;99.90;;;;;;6242975;23;20020;-83
2023/04/24 04:06:19;;;;;;;0.20;0.20;;;10.90;99.90;;;;;;6214594;23;20071;-83
2023/04/24 04:08:45;;;;;;;0.10;0.10;;;10.50;99.90;;;;;;6215898;23;20119;-83
2023/04/24 04:11:19;;;;;;;0.20;0.20;;;10.50;99.90;;;;;;6240533;23;20051;-82
2023/04/24 04:14:13;;;;;;;0.10;0.10;;;10.90;99.90;;;;;;6221257;23;20020;-82
2023/04/24 04:17:06;;;;;;;0.20;0.20;;;10.50;99.90;;;;;;6243876;23;20028;-82
2023/04/24 04:19:47;;;;;;;0.20;0.20;;;10.50;99.90;;;;;;6242512;23;20696;-82
2023/04/24 04:22:16;;;;;;;0.20;0.20;;;10.50;99.90;;;;;;6214982;23;20023;-83
2023/04/24 04:27:24;;;;;;;0.20;0.20;;;10.50;99.90;;;;;;6231983;22;20024;-83
2023/04/24 04:30:21;;;;;;;0.20;0.20;;;10.50;99.90;;;;;;6214224;23;20020;-82
2023/04/24 04:32:51;;;;;;;0.10;0.10;;;9.80;99.90;;;;;;6212349;22;20020;-82
2023/04/24 04:36:42;;;;;;;0.10;0.10;;;10.60;99.90;;;;;;6179950;23;20170;-85
2023/04/24 04:43:19;;;;;;;0.20;0.20;;;10.40;99.90;;;;;;6276826;22;20015;-83
2023/04/24 04:46:03;;;;;;;0.20;0.20;;;10.90;99.90;;;;;;6175521;23;20058;-82
2023/04/24 04:48:46;;;;;;;0.10;0.10;;;10.40;99.90;;;;;;6154619;23;20083;-82
2023/04/24 04:51:24;;;;;;;0.20;0.20;;;10.60;99.90;;;;;;6180775;23;20021;-81
2023/04/24 04:57:26;;;;;;;0.20;0.20;;;10.40;99.90;;;;;;6191823;23;20004;-82
2023/04/24 05:00:11;;;;;;;0.20;0.20;;;10.40;99.90;;;;;;6201815;23;20079;-83
2023/04/24 05:02:51;;;;;;;0.15;0.15;;;10.30;99.90;;;;;;6159364;23;20389;-83
2023/04/24 05:05:17;;;;;;;0.20;0.20;;;10.70;99.90;;;;;;6178945;23;20385;-81
2023/04/24 05:07:49;;;;;;;0.10;0.10;;;10.30;99.90;;;;;;6152351;23;20017;-81
2023/04/24 05:10:18;;;;;;;0.10;0.10;;;10.70;99.90;;;;;;6153335;23;20341;-81
2023/04/24 05:12:43;;;;;;;0.13;0.13;;;10.60;99.90;;;;;;6152994;23;20053;-81
2023/04/24 05:15:45;;;;;;;0.20;0.20;;;10.40;99.90;;;;;;6152028;23;20024;-81
2023/04/24 05:18:19;;;;;;;0.20;0.20;;;10.40;99.90;;;;;;6065280;23;20026;-81
2023/04/24 05:20:44;;;;;;;0.20;0.20;;;10.40;99.90;;;;;;6139654;23;20327;-81
2023/04/24 05:23:22;;;;;;;0.20;0.20;;;10.40;99.90;;;;;;6210977;22;20022;-81
2023/04/24 05:25:48;;;;;;;0.20;0.20;;;10.40;99.90;;;;;;6303923;22;20102;-82
2023/04/24 05:28:27;;;;;;;0.10;0.10;;;10.40;99.90;;;;;;6275409;22;20100;-82
2023/04/24 05:30:55;;;;;;;0.20;0.20;;;10.50;99.90;;;;;;6302539;22;20022;-82
2023/04/24 05:33:24;;;;;;;0.20;0.20;;;10.50;99.90;;;;;;6304520;22;20039;-81
2023/04/24 05:36:06;;;;;;;0.20;0.20;;;11.00;99.90;;;;;;6275077;22;20015;-82
2023/04/24 05:39:19;;;;;;;0.10;0.10;;;10.50;99.90;;;;;;6269331;22;20352;-81
2023/04/24 05:41:45;;;;;;;0.20;0.20;;;10.70;99.90;;;;;;6269518;22;20030;-83
2023/04/24 05:44:14;;;;;;;0.13;0.13;;;10.50;99.90;;;;;;6271536;22;20004;-82
2023/04/24 05:46:58;;;;;;;0.10;0.10;;;10.80;99.90;;;;;;6272639;22;20023;-83
2023/04/24 05:49:24;;;;;;;0.10;0.10;;;10.60;99.90;;;;;;6271326;22;20193;-82
2023/04/24 05:51:49;;;;;;;0.20;0.20;;;10.60;99.90;;;;;;6269451;22;20385;-83
2023/04/24 05:54:27;;;;;;;0.20;0.20;;;10.50;99.90;;;;;;6272390;22;20375;-82
2023/04/24 05:57:07;;;;;;;0.10;0.10;;;10.20;99.90;;;;;;6268829;22;20113;-83
2023/04/24 05:59:38;;;;;;;0.10;0.10;;;10.90;99.90;;;;;;6270023;22;20023;-83
2023/04/24 06:02:40;;;;;;;0.10;0.10;;;11.10;99.90;;;;;;6270546;22;20151;-83
2023/04/24 06:05:18;;;;;;;0.20;0.20;;;10.60;99.90;;;;;;6271218;22;20019;-84
2023/04/24 06:07:44;;;;;;;0.10;0.10;;;11.10;99.90;;;;;;6271969;22;20026;-83
2023/04/24 06:10:26;;;;;;;0.20;0.20;;;10.60;99.90;;;;;;6270288;22;20019;-83
2023/04/24 06:12:51;;;;;;;0.20;0.20;;;10.60;99.90;;;;;;6284785;22;20414;-84
2023/04/24 06:15:17;;;;;;;0.20;0.20;;;10.70;99.90;;;;;;6271720;22;20016;-84
2023/04/24 06:17:47;;;;;;;0.20;0.20;;;10.60;99.90;;;;;;6270993;22;20020;-85
2023/04/24 06:20:39;;;;;;;0.20;0.20;;;10.60;99.90;;;;;;6271249;22;20023;-82
2023/04/24 06:23:23;;;;;;;0.13;0.13;;;10.50;99.90;;;;;;6275236;22;20024;-82
2023/04/24 06:25:49;;;;;;;0.10;0.10;;;10.50;99.90;;;;;;6246396;22;20019;-84
2023/04/24 06:28:34;;;;;;;0.10;0.10;;;10.50;99.90;;;;;;6247003;22;20024;-82
2023/04/24 06:31:03;;;;;;;0.20;0.20;;;10.50;99.90;;;;;;6272663;22;20012;-83
2023/04/24 06:33:29;;;;;;;0.10;0.10;;;10.40;99.90;;;;;;6274200;22;20094;-84
2023/04/24 06:36:20;;;;;;;0.10;0.10;;;10.40;99.90;;;;;;6247517;22;20059;-84
2023/04/24 06:38:45;;;;;;;0.20;0.20;;;10.40;99.90;;;;;;6288503;22;20024;-84
2023/04/24 06:41:29;;;;;;;0.10;0.10;;;10.40;99.90;;;;;;6297183;22;20029;-84
2023/04/24 07:17:21;;;;;;;0.20;0.20;;;10.40;99.90;;;;;;6242224;23;20018;-84
2023/04/24 07:24:41;;;;;;;0.20;0.20;;;10.00;99.90;;;;;;6213843;23;20350;-83
2023/04/24 07:31:18;;;;;;;0.20;0.20;;;10.30;99.90;;;;;;6160271;23;20021;-83
2023/04/24 08:06:42;;;;;;;0.20;0.20;;;10.00;99.90;;;;;;6246026;23;20031;-84
2023/04/24 08:11:57;;;;;;;0.20;0.20;;;10.00;99.90;;;;;;6303878;22;20058;-85
2023/04/24 08:17:47;;;;;;;0.20;0.20;;;10.00;99.90;;;;;;6243185;22;20020;-82
2023/04/24 08:23:27;;;;;;;0.10;0.10;;;9.90;99.90;;;;;;6264288;22;20020;-86
2023/04/24 08:26:02;;;;;;;0.20;0.20;;;9.30;99.90;;;;;;6247462;23;20018;-86
2023/04/24 08:42:05;;;;;;;0.10;0.10;;;9.80;99.90;;;;;;6243049;22;20024;-84
2023/04/24 08:52:53;;;;;;;0.20;0.20;;;9.50;99.90;;;;;;6259898;23;20043;-93
2023/04/24 08:55:23;;;;;;;0.20;0.20;;;9.70;99.90;;;;;;6227724;23;20079;-91
2023/04/24 09:12:31;;;;;;;0.20;0.20;;;8.50;99.90;;;;;;6228104;23;20024;-90
2023/04/24 09:28:02;;;;;;;0.20;0.20;;;9.10;99.90;;;;;;6260819;23;20039;-88
2023/04/24 09:30:42;;;;;;;0.20;0.20;;;9.10;99.90;;;;;;6265977;22;20027;-89
2023/04/24 09:34:08;;;;;;;0.20;0.20;;;9.20;99.90;;;;;;6198369;23;20031;-90
2023/04/24 09:37:28;;;;;;;0.10;0.10;;;8.60;99.90;;;;;;6229776;23;20005;-91
2023/04/24 09:40:23;;;;;;;0.20;0.20;;;8.30;99.90;;;;;;6228295;23;20381;-96
2023/04/24 09:45:43;;;;;;;0.20;0.20;;;9.30;99.90;;;;;;6230916;22;20344;-89
2023/04/24 09:48:34;;;;;;;0.50;0.20;;;9.30;99.90;;;;;;6229940;23;20047;-89
2023/04/24 09:58:11;;;;;;;0.20;0.20;;;8.00;99.90;;;;;;6217474;23;20105;-89
2023/04/24 10:04:13;;;;;;;0.20;0.20;;;9.20;99.90;;;;;;6238755;23;20031;-90
2023/04/24 10:07:02;;;;;;;0.10;0.10;;;9.20;99.90;;;;;;6234471;23;20059;-88
2023/04/24 10:12:41;;;;;;;0.20;0.20;;;9.30;99.90;;;;;;6275753;22;20031;-90
2023/04/24 10:18:16;;;;;;;0.20;0.20;;;9.40;99.90;;;;;;6274109;22;20018;-90
2023/04/24 10:20:42;;;;;;;0.20;0.20;;;9.60;99.90;;;;;;6244087;22;20352;-87
2023/04/24 10:23:20;;;;;;;0.20;0.20;;;9.60;99.90;;;;;;6245735;22;20023;-84
2023/04/24 10:26:05;;;;;;;0.20;0.20;;;9.60;99.90;;;;;;6235508;23;20154;-86
2023/04/24 10:31:56;;;;;;;0.20;0.20;;;9.80;99.90;;;;;;6241110;23;20028;-86
2023/04/24 10:34:47;;;;;;;0.20;0.20;;;9.90;99.90;;;;;;6241059;23;20031;-88
2023/04/24 10:39:48;;;;;;;0.13;0.13;;;10.10;99.90;;;;;;6272915;22;20316;-84
2023/04/24 10:42:23;;;;;;;;;;;10.20;99.90;;;;;;6276449;22;20022;-87
2023/04/24 10:44:49;;;;;;;0.10;0.10;;;10.30;99.90;;;;;;6247195;22;19919;-89
2023/04/24 10:50:59;;;;;;;0.20;0.20;;;10.40;99.90;;;;;;6279231;22;20102;-89
2023/04/24 10:53:29;;;;;;;0.20;0.20;;;10.50;99.90;;;;;;6242131;22;20039;-85
2023/04/24 10:56:21;;;;;;;0.17;0.17;;;10.60;99.90;;;;;;6247304;22;20020;-88
2023/04/24 10:59:29;;;;;;;0.20;0.20;;;10.60;99.90;;;;;;6247266;22;20012;-86
2023/04/24 11:02:38;;;;;;;0.10;0.10;;;10.70;99.90;;;;;;6247467;22;20082;-86
2023/04/24 11:05:49;;;;;;;0.10;0.10;;;9.50;99.90;;;;;;6248382;22;20103;-84
2023/04/24 11:12:14;;;;;;;0.17;0.17;;;10.70;99.90;;;;;;6244665;22;20020;-86
2023/04/24 11:19:13;;;;;;;0.20;0.20;;;10.70;99.90;;;;;;6278050;22;20023;-88
2023/04/24 11:25:03;;;;;;;0.20;0.20;;;10.70;99.90;;;;;;6245975;23;20035;-91
2023/04/24 11:28:14;;;;;;;0.20;0.20;;;10.60;99.90;;;;;;6255923;23;20448;-86
2023/04/24 11:30:46;;;;;;;0.20;0.20;;;10.50;99.90;;;;;;6219514;23;20020;-92
2023/04/24 11:33:31;;;;;;;0.10;0.10;;;10.40;99.90;;;;;;6221924;23;20016;-92
2023/04/24 11:35:57;;;;;;;0.20;0.20;;;10.40;99.90;;;;;;6247910;23;20039;-88
2023/04/24 11:38:35;;;;;;;0.20;0.20;;;10.50;99.90;;;;;;6221003;23;20012;-91
2023/04/24 11:44:29;;;;;;;0.20;0.20;;;10.20;99.90;;;;;;6238317;23;20094;-93
2023/04/24 11:46:58;;;;;;;0.20;0.20;;;10.60;99.90;;;;;;6272008;22;20051;-91
2023/04/24 11:49:24;;;;;;;0.20;0.20;;;10.20;99.90;;;;;;6247497;23;20099;-93
2023/04/24 11:51:50;;;;;;;0.10;0.10;;;10.10;99.90;;;;;;6252484;22;20027;-94
2023/04/24 11:54:55;;;;;;;0.20;0.20;;;10.10;99.90;;;;;;6244721;23;20016;-87
2023/04/24 11:57:34;;;;;;;0.10;0.10;;;10.10;99.90;;;;;;6237946;23;20171;-90
2023/04/24 12:04:09;;;;;;;0.10;0.10;;;10.00;99.90;;;;;;6245560;23;20019;-91
2023/04/24 12:07:04;;;;;;;0.10;0.10;;;10.10;99.90;;;;;;6232171;23;20051;-94
2023/04/24 12:10:06;;;;;;;;;;;;;;;;;;;;;
2023/04/24 12:12:41;;;;;;;0.15;0.15;;;10.00;99.90;;;;;;6199041;23;20071;-94
2023/04/24 12:15:26;;;;;;;0.20;0.20;;;10.50;99.90;;;;;;6249186;22;20016;-87
2023/04/24 12:17:53;;;;;;;0.20;0.20;;;10.00;99.90;;;;;;6245151;23;20016;-91
2023/04/24 12:23:56;;;;;;;0.20;0.20;;;9.80;99.90;;;;;;6217603;23;20059;-90
2023/04/24 12:26:22;;;;;;;0.20;0.20;;;9.80;99.90;;;;;;6216717;23;20024;-87
2023/04/24 12:28:49;;;;;;;0.10;0.10;;;9.80;99.90;;;;;;6279499;22;20019;-87
2023/04/24 12:31:33;;;;;;;0.20;0.20;;;9.90;99.90;;;;;;6304312;22;20064;-88
2023/04/24 12:34:21;;;;;;;0.10;0.10;;;9.90;99.90;;;;;;6279489;22;20015;-88
2023/04/24 12:36:48;;;;;;;0.20;0.20;;;9.90;99.90;;;;;;6277929;22;20022;-87
2023/04/24 12:40:01;;;;;;;0.10;0.10;;;10.60;99.90;;;;;;6304799;22;20016;-87
2023/04/24 12:43:02;;;;;;;0.20;0.20;;;10.10;99.90;;;;;;6163163;22;20339;-86
2023/04/24 12:45:36;;;;;;;0.20;0.20;;;10.10;99.90;;;;;;6244437;22;20016;-87
2023/04/24 12:48:05;;;;;;;0.20;0.20;;;10.80;99.90;;;;;;6281360;22;20022;-90
2023/04/24 12:50:31;;;;;;;0.20;0.20;;;10.40;99.90;;;;;;6243697;22;20007;-87
2023/04/24 12:52:57;;;;;;;0.10;0.10;;;10.50;99.90;;;;;;6230624;22;20024;-89
2023/04/24 12:55:42;;;;;;;0.20;0.20;;;10.50;99.90;;;;;;6246324;22;20027;-87
2023/04/24 12:58:08;;;;;;;0.10;0.10;;;10.80;99.90;;;;;;6241070;22;20026;-85
2023/04/24 13:00:52;;;;;;;0.20;0.20;;;10.40;99.90;;;;;;6240536;23;20102;-84
2023/04/24 13:04:02;;;;;;;0.10;0.10;;;10.40;99.90;;;;;;6242866;23;20012;-86
2023/04/24 13:06:34;;;;;;;0.10;0.10;;;10.10;99.90;;;;;;6218725;23;20055;-90
2023/04/24 13:09:01;;;;;;;0.20;0.20;;;10.20;99.90;;;;;;6246045;22;20091;-90
2023/04/24 13:11:30;;;;;;;0.10;0.10;;;10.10;99.90;;;;;;6245150;23;20023;-91
2023/04/24 13:13:56;;;;;;;0.20;0.20;;;10.10;99.90;;;;;;6255263;22;20273;-90
2023/04/24 13:16:37;;;;;;;0.17;0.17;;;10.70;99.90;;;;;;6279219;22;20023;-89
2023/04/24 13:19:09;;;;;;;0.10;0.10;;;10.00;99.90;;;;;;6281030;22;20011;-88
2023/04/24 13:21:47;;;;;;;0.13;0.13;;;10.20;99.90;;;;;;6280725;22;20025;-90
2023/04/24 13:25:05;;;;;;;0.20;0.20;;;9.90;99.90;;;;;;6298915;22;20015;-86
2023/04/24 13:28:53;;;;;;;0.20;0.20;;;9.80;99.90;;;;;;6275269;22;20026;-85
2023/04/24 13:31:20;;;;;;;0.15;0.15;;;9.80;99.90;;;;;;6251712;22;20097;-86
2023/04/24 13:33:46;;;;;;;0.20;0.20;;;9.70;99.90;;;;;;6273885;22;20313;-87
2023/04/24 13:36:21;;;;;;;0.17;0.17;;;9.70;99.90;;;;;;6246174;22;20015;-85
2023/04/24 13:38:56;;;;;;;0.20;0.20;;;9.60;99.90;;;;;;6246725;22;20011;-86
2023/04/24 13:41:36;;;;;;;0.10;0.10;;;9.70;99.90;;;;;;6273951;22;20026;-86
2023/04/24 13:44:02;;;;;;;0.20;0.20;;;9.70;99.90;;;;;;6277085;22;20069;-84
2023/04/24 13:46:31;;;;;;;0.20;0.20;;;9.80;99.90;;;;;;6275981;22;20455;-85
2023/04/24 13:48:58;;;;;;;0.10;0.10;;;9.80;99.90;;;;;;6277096;22;20090;-85
2023/04/24 13:51:41;;;;;;;0.10;0.10;;;10.30;99.90;;;;;;6304720;22;20094;-86
2023/04/24 13:54:12;;;;;;;0.10;0.10;;;10.50;99.90;;;;;;6305399;22;20106;-87
2023/04/24 13:56:40;;;;;;;0.20;0.20;;;10.00;99.90;;;;;;6304594;22;20081;-86
2023/04/24 13:59:06;;;;;;;0.20;0.20;;;9.90;99.90;;;;;;6304801;22;20019;-86
2023/04/24 14:01:32;;;;;;;0.20;0.20;;;9.90;99.90;;;;;;6312349;22;20443;-87
2023/04/24 14:04:01;;;;;;;0.20;0.20;;;10.20;99.90;;;;;;6287589;22;20068;-85
2023/04/24 14:06:38;;;;;;;0.10;0.10;;;9.90;99.90;;;;;;6306803;22;20023;-88
2023/04/24 14:09:32;;;;;;;0.15;0.15;;;9.80;99.90;;;;;;6277132;22;20451;-87
2023/04/24 14:12:04;;;;;;;0.20;0.20;;;9.70;99.90;;;;;;6277253;22;20060;-86
2023/04/24 14:14:30;;;;;;;0.20;0.20;;;9.60;99.90;;;;;;6273871;22;20019;-88
2023/04/24 14:17:39;;;;;;;0.15;0.15;;;9.50;99.90;;;;;;6275815;22;20008;-88
2023/04/24 14:20:06;;;;;;;0.10;0.10;;;8.60;99.90;;;;;;6277390;22;20057;-86
2023/04/24 14:22:38;;;;;;;0.20;0.20;;;9.40;99.90;;;;;;6275550;22;20026;-85
2023/04/24 14:25:50;;;;;;;0.20;0.20;;;9.40;99.90;;;;;;6301294;22;20082;-85
2023/04/24 14:28:22;;;;;;;0.20;0.20;;;8.60;99.90;;;;;;6253405;22;20344;-86
2023/04/24 14:35:26;;;;;;;0.10;0.10;;;9.40;99.90;;;;;;6093804;23;20383;-88
2023/04/24 14:37:52;;;;;;;0.20;0.20;;;9.40;99.90;;;;;;6235098;22;20347;-87
2023/04/24 14:40:20;;;;;;;0.20;0.20;;;9.30;99.90;;;;;;6303544;22;20018;-87
2023/04/24 14:42:46;;;;;;;0.20;0.20;;;9.30;99.90;;;;;;6293996;22;20016;-86
2023/04/24 14:45:15;;;;;;;0.10;0.10;;;9.30;99.90;;;;;;6280814;22;20027;-86
2023/04/24 14:48:03;;;;;;;0.20;0.20;;;9.30;99.90;;;;;;6305676;22;20451;-86
2023/04/24 14:50:29;;;;;;;0.20;0.20;;;9.40;99.90;;;;;;6276690;22;20443;-88
2023/04/24 14:53:04;;;;;;;0.13;0.13;;;9.30;99.90;;;;;;6272210;22;20019;-85
2023/04/24 14:55:44;;;;;;;0.20;0.20;;;9.80;99.90;;;;;;6272666;22;20034;-87
2023/04/24 14:58:22;;;;;;;0.27;0.27;;;9.70;99.90;;;;;;6248568;22;20098;-87
2023/04/24 15:00:59;;;;;;;0.20;0.20;;;9.40;99.90;;;;;;6274467;22;20016;-88
2023/04/24 15:03:29;;;;;;;0.20;0.20;;;8.70;99.90;;;;;;6246055;22;20471;-88
2023/04/24 15:05:54;;;;;;;0.20;0.20;;;9.40;99.90;;;;;;6276512;22;20022;-88
2023/04/24 15:08:23;;;;;;;0.13;0.13;;;9.40;99.90;;;;;;6271006;22;20008;-89
2023/04/24 15:10:51;;;;;;;0.20;0.20;;;9.80;99.90;;;;;;6267083;22;20019;-89
2023/04/24 15:13:17;;;;;;;0.20;0.20;;;9.40;99.90;;;;;;6272775;22;20073;-89
2023/04/24 15:15:46;;;;;;;0.20;0.20;;;9.70;99.90;;;;;;6272615;22;20047;-88
2023/04/24 15:18:21;;;;;;;0.20;0.20;;;9.50;99.90;;;;;;6249502;22;20023;-88
2023/04/24 15:20:50;;;;;;;0.20;0.20;;;9.60;99.90;;;;;;6246142;22;20023;-84
2023/04/24 15:23:22;;;;;;;0.20;0.20;;;9.40;99.90;;;;;;6274238;22;20376;-87
2023/04/24 15:26:03;;;;;;;0.10;0.10;;;10.10;99.90;;;;;;6249168;22;20102;-87
2023/04/24 15:28:28;;;;;;;0.10;0.10;;;9.60;99.90;;;;;;6257251;22;20026;-87
2023/04/24 15:30:54;;;;;;;0.10;0.10;;;9.40;99.90;;;;;;6270702;22;20347;-87
2023/04/24 15:33:32;;;;;;;0.20;0.20;;;9.30;99.90;;;;;;6273120;22;20458;-88
2023/04/24 15:36:01;;;;;;;0.20;0.20;;;9.40;99.90;;;;;;6272856;22;20050;-88
2023/04/24 15:38:45;;;;;;;0.10;0.10;;;9.90;99.90;;;;;;6275852;22;20410;-89
2023/04/24 15:41:17;;;;;;;0.10;0.10;;;9.40;99.90;;;;;;6275305;22;20047;-87
2023/04/24 15:43:43;;;;;;;0.17;0.17;;;9.50;99.90;;;;;;6271443;22;20450;-86
2023/04/24 15:46:21;;;;;;;0.17;0.17;;;9.50;99.90;;;;;;6269680;22;20106;-87
2023/04/24 15:48:53;;;;;;;0.10;0.10;;;9.50;99.90;;;;;;6270054;22;20158;-88
2023/04/24 15:54:04;;;;;;;0.10;0.10;;;9.60;99.90;;;;;;6301178;22;20015;-86
2023/04/24 15:56:29;;;;;;;0.10;0.10;;;9.60;99.90;;;;;;6275302;22;20117;-87
2023/04/24 15:59:05;;;;;;;0.10;0.10;;;9.60;99.90;;;;;;6278748;22;20569;-86
2023/04/24 16:01:56;;;;;;;0.10;0.10;;;9.50;99.90;;;;;;6278676;22;20023;-88
2023/04/24 16:49:13;;;;;;;0.20;0.20;;;9.10;99.90;;;;;;6313620;22;20372;-91
2023/04/24 18:29:20;;;;;;;0.20;0.20;;;8.20;99.90;;;;;;6267186;22;20019;-88
2023/04/24 19:57:31;;;;;;;0.20;0.20;;;8.10;99.90;;;;;;6303973;22;20027;-86
2023/04/24 19:59:57;;;;;;;0.20;0.20;;;8.00;99.90;;;;;;6277662;22;20024;-87
2023/04/24 20:12:51;;;;;;;0.20;0.20;;;7.90;99.90;;;;;;6270065;22;20059;-90
2023/04/24 20:21:37;;;;;;;0.20;0.20;;;7.90;99.90;;;;;;6182529;23;20100;-89
2023/04/24 20:24:09;;;;;;;0.20;0.20;;;8.60;99.90;;;;;;6184017;23;20054;-87
2023/04/24 20:27:05;;;;;;;0.10;0.10;;;7.90;99.90;;;;;;6184025;23;20053;-87
2023/04/24 20:29:53;;;;;;;0.20;0.20;;;8.00;99.90;;;;;;6153306;23;20059;-87
2023/04/24 20:43:37;;;;;;;0.20;0.20;;;6.80;99.90;;;;;;6182747;23;20011;-89
2023/04/24 20:53:26;;;;;;;0.20;0.20;;;8.10;99.90;;;;;;6039464;23;20074;-91
2023/04/24 20:58:50;;;;;;;0.10;0.10;;;8.40;99.90;;;;;;6280694;22;20363;-85
2023/04/24 21:01:28;;;;;;;0.20;0.20;;;7.80;99.90;;;;;;6300839;22;20019;-86
2023/04/24 21:37:35;;;;;;;0.20;0.20;;;7.80;99.90;;;;;;6250617;22;20028;-85
2023/04/24 21:40:10;;;;;;;0.10;0.10;;;7.70;99.90;;;;;;6216028;23;20020;-85
2023/04/24 21:43:01;;;;;;;0.20;0.20;;;7.70;99.90;;;;;;6243904;23;20012;-83
2023/04/24 21:46:01;;;;;;;0.20;0.20;;;7.70;99.90;;;;;;6216436;23;20016;-80
2023/04/24 21:49:04;;;;;;;0.20;0.20;;;7.00;99.90;;;;;;6217108;23;20099;-81
2023/04/24 21:51:31;;;;;;;0.20;0.20;;;7.60;99.90;;;;;;6235164;22;20091;-77
2023/04/24 21:54:50;;;;;;;0.20;0.20;;;7.70;99.90;;;;;;6251052;23;20109;-80
2023/04/24 22:07:44;;;;;;;0.20;0.20;;;7.60;99.90;;;;;;6302941;22;20046;-80
2023/04/24 22:11:10;;;;;;;0.20;0.20;;;7.70;99.90;;;;;;6304491;22;20051;-79
2023/04/24 22:19:53;;;;;;;0.13;0.13;;;7.50;99.90;;;;;;6288244;22;20027;-79
2023/04/24 22:22:30;;;;;;;0.20;0.20;;;7.50;99.90;;;;;;6237564;23;20037;-79
2023/04/24 23:02:32;;;;;;;0.20;0.20;;;7.20;99.90;;;;;;6182110;23;20087;-80
2023/04/24 23:06:09;;;;;;;0.20;0.20;;;7.10;99.90;;;;;;6138894;23;20020;-80
2023/04/24 23:08:59;;;;;;;0.20;0.20;;;6.10;99.90;;;;;;6093557;23;20022;-80
2023/04/24 23:12:23;;;;;;;0.20;0.20;;;7.10;99.90;;;;;;6093880;23;20584;-79